sensor_id;sensor_type;location;lat;lon;timestamp;temperature;humidity
77582;DHT22;66726;52.388;9.986;2023-09-07T00:01:11;20.10;94.30
77582;DHT22;66726;52.388;9.986;2023-09-07T00:03:44;20.20;94.50
77582;DHT22;66726;52.388;9.986;2023-09-07T00:06:18;20.00;94.10
77582;DHT22;66726;52.388;9.986;2023-09-07T00:08:52;19.90;94.70
77582;DHT22;66726;52.388;9.986;2023-09-07T00:11:26;20.20;94.30
77582;DHT22;66726;52.388;9.986;2023-09-07T00:13:59;20.00;94.50
77582;DHT22;66726;52.388;9.986;2023-09-07T00:16:34;20.00;99.70
77582;DHT22;66726;52.388;9.986;2023-09-07T00:19:08;19.70;95.30
77582;DHT22;66726;52.388;9.986;2023-09-07T00:21:41;20.00;99.90
77582;DHT22;66726;52.388;9.986;2023-09-07T00:24:15;20.20;94.60
77582;DHT22;66726;52.388;9.986;2023-09-07T00:26:49;20.20;94.20
77582;DHT22;66726;52.388;9.986;2023-09-07T00:29:23;20.10;99.80
77582;DHT22;66726;52.388;9.986;2023-09-07T00:31:56;20.00;94.50
77582;DHT22;66726;52.388;9.986;2023-09-07T00:34:30;20.00;94.30
77582;DHT22;66726;52.388;9.986;2023-09-07T00:37:03;19.80;95.40
77582;DHT22;66726;52.388;9.986;2023-09-07T00:39:37;19.80;94.90
77582;DHT22;66726;52.388;9.986;2023-09-07T00:42:10;19.60;99.90
77582;DHT22;66726;52.388;9.986;2023-09-07T00:44:43;19.50;95.30
77582;DHT22;66726;52.388;9.986;2023-09-07T00:47:18;19.40;95.60
77582;DHT22;66726;52.388;9.986;2023-09-07T00:49:52;19.40;95.60
77582;DHT22;66726;52.388;9.986;2023-09-07T00:52:28;19.60;95.50
77582;DHT22;66726;52.388;9.986;2023-09-07T00:55:04;19.70;95.10
77582;DHT22;66726;52.388;9.986;2023-09-07T00:57:39;19.40;99.90
77582;DHT22;66726;52.388;9.986;2023-09-07T01:00:15;19.40;96.60
77582;DHT22;66726;52.388;9.986;2023-09-07T01:02:48;19.40;95.70
77582;DHT22;66726;52.388;9.986;2023-09-07T01:05:24;19.40;95.70
77582;DHT22;66726;52.388;9.986;2023-09-07T01:08:12;19.50;99.90
77582;DHT22;66726;52.388;9.986;2023-09-07T01:10:54;19.00;97.20
77582;DHT22;66726;52.388;9.986;2023-09-07T01:13:27;19.10;96.80
77582;DHT22;66726;52.388;9.986;2023-09-07T01:16:01;18.90;98.00
77582;DHT22;66726;52.388;9.986;2023-09-07T01:18:35;18.80;97.70
77582;DHT22;66726;52.388;9.986;2023-09-07T01:21:09;18.80;97.80
77582;DHT22;66726;52.388;9.986;2023-09-07T01:23:45;18.90;98.30
77582;DHT22;66726;52.388;9.986;2023-09-07T01:26:20;18.80;98.00
77582;DHT22;66726;52.388;9.986;2023-09-07T01:28:53;18.80;98.10
77582;DHT22;66726;52.388;9.986;2023-09-07T01:31:27;19.10;97.50
77582;DHT22;66726;52.388;9.986;2023-09-07T01:34:00;19.00;97.60
77582;DHT22;66726;52.388;9.986;2023-09-07T01:36:34;19.20;97.20
77582;DHT22;66726;52.388;9.986;2023-09-07T01:39:07;19.10;97.30
77582;DHT22;66726;52.388;9.986;2023-09-07T01:41:42;19.10;97.10
77582;DHT22;66726;52.388;9.986;2023-09-07T01:44:15;18.90;97.40
77582;DHT22;66726;52.388;9.986;2023-09-07T01:46:48;18.90;97.70
77582;DHT22;66726;52.388;9.986;2023-09-07T01:49:22;18.80;97.90
77582;DHT22;66726;52.388;9.986;2023-09-07T01:51:55;18.90;98.00
77582;DHT22;66726;52.388;9.986;2023-09-07T01:54:28;18.90;98.10
77582;DHT22;66726;52.388;9.986;2023-09-07T01:57:02;18.70;98.10
77582;DHT22;66726;52.388;9.986;2023-09-07T01:59:36;18.80;98.00
77582;DHT22;66726;52.388;9.986;2023-09-07T02:02:10;18.70;98.20
77582;DHT22;66726;52.388;9.986;2023-09-07T02:04:43;18.80;98.10
77582;DHT22;66726;52.388;9.986;2023-09-07T02:07:16;19.00;99.90
77582;DHT22;66726;52.388;9.986;2023-09-07T02:09:49;18.80;98.20
77582;DHT22;66726;52.388;9.986;2023-09-07T02:12:23;18.70;98.00
77582;DHT22;66726;52.388;9.986;2023-09-07T02:15:01;18.60;98.60
77582;DHT22;66726;52.388;9.986;2023-09-07T02:17:35;18.60;98.40
77582;DHT22;66726;52.388;9.986;2023-09-07T02:20:11;18.50;98.70
77582;DHT22;66726;52.388;9.986;2023-09-07T02:22:44;18.50;99.60
77582;DHT22;66726;52.388;9.986;2023-09-07T02:25:18;18.40;98.80
77582;DHT22;66726;52.388;9.986;2023-09-07T02:27:51;18.30;99.10
77582;DHT22;66726;52.388;9.986;2023-09-07T02:30:24;18.40;99.00
77582;DHT22;66726;52.388;9.986;2023-09-07T02:32:58;18.50;98.90
77582;DHT22;66726;52.388;9.986;2023-09-07T02:35:32;18.10;99.90
77582;DHT22;66726;52.388;9.986;2023-09-07T02:38:07;18.00;99.90
77582;DHT22;66726;52.388;9.986;2023-09-07T02:40:43;17.90;99.90
77582;DHT22;66726;52.388;9.986;2023-09-07T02:43:17;18.10;99.90
77582;DHT22;66726;52.388;9.986;2023-09-07T02:45:52;18.20;99.90
77582;DHT22;66726;52.388;9.986;2023-09-07T02:48:25;18.00;99.90
77582;DHT22;66726;52.388;9.986;2023-09-07T02:50:59;18.00;99.90
77582;DHT22;66726;52.388;9.986;2023-09-07T02:53:33;18.30;99.50
77582;DHT22;66726;52.388;9.986;2023-09-07T02:56:06;18.00;99.90
77582;DHT22;66726;52.388;9.986;2023-09-07T02:58:41;18.00;99.70
77582;DHT22;66726;52.388;9.986;2023-09-07T03:01:15;17.90;99.80
77582;DHT22;66726;52.388;9.986;2023-09-07T03:03:51;18.10;99.90
77582;DHT22;66726;52.388;9.986;2023-09-07T03:06:25;17.90;99.90
77582;DHT22;66726;52.388;9.986;2023-09-07T03:08:58;17.60;99.90
77582;DHT22;66726;52.388;9.986;2023-09-07T03:11:31;17.60;99.90
77582;DHT22;66726;52.388;9.986;2023-09-07T03:14:05;17.60;99.90
77582;DHT22;66726;52.388;9.986;2023-09-07T03:16:38;17.60;99.90
77582;DHT22;66726;52.388;9.986;2023-09-07T03:19:12;17.60;99.90
77582;DHT22;66726;52.388;9.986;2023-09-07T03:21:45;17.70;99.90
77582;DHT22;66726;52.388;9.986;2023-09-07T03:24:19;17.70;99.90
77582;DHT22;66726;52.388;9.986;2023-09-07T03:26:52;17.80;99.90
77582;DHT22;66726;52.388;9.986;2023-09-07T03:29:25;17.80;99.90
77582;DHT22;66726;52.388;9.986;2023-09-07T03:32:01;17.60;99.90
77582;DHT22;66726;52.388;9.986;2023-09-07T03:34:35;17.60;99.90
77582;DHT22;66726;52.388;9.986;2023-09-07T03:37:09;17.70;99.90
77582;DHT22;66726;52.388;9.986;2023-09-07T03:39:43;17.80;99.90
77582;DHT22;66726;52.388;9.986;2023-09-07T03:42:16;17.80;99.90
77582;DHT22;66726;52.388;9.986;2023-09-07T03:44:49;17.60;99.90
77582;DHT22;66726;52.388;9.986;2023-09-07T03:47:22;17.50;99.90
77582;DHT22;66726;52.388;9.986;2023-09-07T03:49:59;17.40;99.90
77582;DHT22;66726;52.388;9.986;2023-09-07T03:52:33;17.40;99.90
77582;DHT22;66726;52.388;9.986;2023-09-07T03:55:09;17.40;99.90
77582;DHT22;66726;52.388;9.986;2023-09-07T03:57:42;17.50;99.90
77582;DHT22;66726;52.388;9.986;2023-09-07T04:00:18;17.40;99.90
77582;DHT22;66726;52.388;9.986;2023-09-07T04:02:51;17.40;99.90
77582;DHT22;66726;52.388;9.986;2023-09-07T04:05:27;17.40;99.90
77582;DHT22;66726;52.388;9.986;2023-09-07T04:08:00;17.50;99.90
77582;DHT22;66726;52.388;9.986;2023-09-07T04:10:35;17.40;99.90
77582;DHT22;66726;52.388;9.986;2023-09-07T04:13:09;17.40;99.90
77582;DHT22;66726;52.388;9.986;2023-09-07T04:15:45;17.40;99.90
77582;DHT22;66726;52.388;9.986;2023-09-07T04:18:19;17.30;99.90
77582;DHT22;66726;52.388;9.986;2023-09-07T04:20:52;17.20;99.90
77582;DHT22;66726;52.388;9.986;2023-09-07T04:23:35;17.20;99.90
77582;DHT22;66726;52.388;9.986;2023-09-07T04:26:10;17.20;99.90
77582;DHT22;66726;52.388;9.986;2023-09-07T04:28:44;17.20;99.90
77582;DHT22;66726;52.388;9.986;2023-09-07T04:31:18;17.30;99.90
77582;DHT22;66726;52.388;9.986;2023-09-07T04:33:51;17.40;99.90
77582;DHT22;66726;52.388;9.986;2023-09-07T04:36:25;17.30;99.90
77582;DHT22;66726;52.388;9.986;2023-09-07T04:38:58;17.40;99.90
77582;DHT22;66726;52.388;9.986;2023-09-07T04:41:33;17.30;99.90
77582;DHT22;66726;52.388;9.986;2023-09-07T04:44:07;17.30;99.90
77582;DHT22;66726;52.388;9.986;2023-09-07T04:46:40;17.10;99.90
77582;DHT22;66726;52.388;9.986;2023-09-07T04:49:14;17.20;99.90
77582;DHT22;66726;52.388;9.986;2023-09-07T04:51:47;17.20;99.90
77582;DHT22;66726;52.388;9.986;2023-09-07T04:54:20;17.10;99.90
77582;DHT22;66726;52.388;9.986;2023-09-07T04:56:54;17.10;99.90
77582;DHT22;66726;52.388;9.986;2023-09-07T04:59:27;17.40;99.90
77582;DHT22;66726;52.388;9.986;2023-09-07T05:02:02;17.00;99.90
77582;DHT22;66726;52.388;9.986;2023-09-07T05:04:36;17.00;99.90
77582;DHT22;66726;52.388;9.986;2023-09-07T05:07:09;17.00;99.90
77582;DHT22;66726;52.388;9.986;2023-09-07T05:09:45;17.10;99.90
77582;DHT22;66726;52.388;9.986;2023-09-07T05:12:19;17.20;99.90
77582;DHT22;66726;52.388;9.986;2023-09-07T05:14:52;17.20;99.90
77582;DHT22;66726;52.388;9.986;2023-09-07T05:17:25;17.30;99.90
77582;DHT22;66726;52.388;9.986;2023-09-07T05:19:59;17.20;99.90
77582;DHT22;66726;52.388;9.986;2023-09-07T05:22:32;17.10;99.90
77582;DHT22;66726;52.388;9.986;2023-09-07T05:25:09;17.10;99.90
77582;DHT22;66726;52.388;9.986;2023-09-07T05:27:43;17.20;99.90
77582;DHT22;66726;52.388;9.986;2023-09-07T05:30:16;17.10;99.90
77582;DHT22;66726;52.388;9.986;2023-09-07T05:32:50;17.20;99.90
77582;DHT22;66726;52.388;9.986;2023-09-07T05:35:23;17.10;99.90
77582;DHT22;66726;52.388;9.986;2023-09-07T05:37:59;17.20;99.90
77582;DHT22;66726;52.388;9.986;2023-09-07T05:40:35;17.20;99.90
77582;DHT22;66726;52.388;9.986;2023-09-07T05:43:10;17.10;99.90
77582;DHT22;66726;52.388;9.986;2023-09-07T05:45:43;17.20;99.90
77582;DHT22;66726;52.388;9.986;2023-09-07T05:48:17;17.20;99.90
77582;DHT22;66726;52.388;9.986;2023-09-07T05:50:51;17.20;99.90
77582;DHT22;66726;52.388;9.986;2023-09-07T05:53:24;17.30;99.90
77582;DHT22;66726;52.388;9.986;2023-09-07T05:55:57;17.30;99.90
77582;DHT22;66726;52.388;9.986;2023-09-07T05:58:31;17.20;99.90
77582;DHT22;66726;52.388;9.986;2023-09-07T06:01:04;17.30;99.90
77582;DHT22;66726;52.388;9.986;2023-09-07T06:03:38;17.40;99.90
77582;DHT22;66726;52.388;9.986;2023-09-07T06:06:11;17.40;99.90
77582;DHT22;66726;52.388;9.986;2023-09-07T06:08:45;17.40;99.90
77582;DHT22;66726;52.388;9.986;2023-09-07T06:11:18;17.40;99.90
77582;DHT22;66726;52.388;9.986;2023-09-07T06:13:51;17.40;99.90
77582;DHT22;66726;52.388;9.986;2023-09-07T06:16:25;17.50;99.90
77582;DHT22;66726;52.388;9.986;2023-09-07T06:18:58;17.50;99.90
77582;DHT22;66726;52.388;9.986;2023-09-07T06:21:31;17.50;99.90
77582;DHT22;66726;52.388;9.986;2023-09-07T06:24:06;17.60;99.90
77582;DHT22;66726;52.388;9.986;2023-09-07T06:26:39;17.60;99.90
77582;DHT22;66726;52.388;9.986;2023-09-07T06:29:12;17.60;99.90
77582;DHT22;66726;52.388;9.986;2023-09-07T06:31:46;17.70;99.90
77582;DHT22;66726;52.388;9.986;2023-09-07T06:34:20;17.70;99.90
77582;DHT22;66726;52.388;9.986;2023-09-07T06:36:53;17.70;99.90
77582;DHT22;66726;52.388;9.986;2023-09-07T06:39:27;17.80;99.90
77582;DHT22;66726;52.388;9.986;2023-09-07T06:42:00;17.90;99.90
77582;DHT22;66726;52.388;9.986;2023-09-07T06:44:35;17.90;99.90
77582;DHT22;66726;52.388;9.986;2023-09-07T06:47:09;18.00;99.90
77582;DHT22;66726;52.388;9.986;2023-09-07T06:49:42;18.00;99.90
77582;DHT22;66726;52.388;9.986;2023-09-07T06:52:15;18.10;99.90
77582;DHT22;66726;52.388;9.986;2023-09-07T06:54:49;18.20;99.90
77582;DHT22;66726;52.388;9.986;2023-09-07T06:57:24;18.20;99.90
77582;DHT22;66726;52.388;9.986;2023-09-07T06:59:57;18.30;99.90
77582;DHT22;66726;52.388;9.986;2023-09-07T07:02:32;18.30;99.90
77582;DHT22;66726;52.388;9.986;2023-09-07T07:05:07;18.40;99.90
77582;DHT22;66726;52.388;9.986;2023-09-07T07:07:42;18.40;99.90
77582;DHT22;66726;52.388;9.986;2023-09-07T07:10:15;18.50;99.90
77582;DHT22;66726;52.388;9.986;2023-09-07T07:12:49;18.60;99.90
77582;DHT22;66726;52.388;9.986;2023-09-07T07:15:23;18.70;99.90
77582;DHT22;66726;52.388;9.986;2023-09-07T07:17:56;18.80;99.90
77582;DHT22;66726;52.388;9.986;2023-09-07T07:20:29;18.80;99.90
77582;DHT22;66726;52.388;9.986;2023-09-07T07:23:03;19.20;99.90
77582;DHT22;66726;52.388;9.986;2023-09-07T07:25:37;19.00;99.90
77582;DHT22;66726;52.388;9.986;2023-09-07T07:28:11;19.10;99.90
77582;DHT22;66726;52.388;9.986;2023-09-07T07:30:44;19.20;99.90
77582;DHT22;66726;52.388;9.986;2023-09-07T07:33:17;19.30;99.90
77582;DHT22;66726;52.388;9.986;2023-09-07T07:35:51;19.50;99.90
77582;DHT22;66726;52.388;9.986;2023-09-07T07:38:25;19.50;99.90
77582;DHT22;66726;52.388;9.986;2023-09-07T07:40:58;19.60;99.90
77582;DHT22;66726;52.388;9.986;2023-09-07T07:43:34;19.70;99.90
77582;DHT22;66726;52.388;9.986;2023-09-07T07:46:08;19.80;99.90
77582;DHT22;66726;52.388;9.986;2023-09-07T07:48:41;19.90;99.90
77582;DHT22;66726;52.388;9.986;2023-09-07T07:51:15;19.90;99.90
77582;DHT22;66726;52.388;9.986;2023-09-07T07:53:48;20.10;99.90
77582;DHT22;66726;52.388;9.986;2023-09-07T07:56:23;20.20;99.90
77582;DHT22;66726;52.388;9.986;2023-09-07T07:58:56;20.30;99.90
77582;DHT22;66726;52.388;9.986;2023-09-07T08:01:29;20.40;99.90
77582;DHT22;66726;52.388;9.986;2023-09-07T08:04:03;20.50;99.90
77582;DHT22;66726;52.388;9.986;2023-09-07T08:06:37;20.60;99.50
77582;DHT22;66726;52.388;9.986;2023-09-07T08:09:10;20.60;99.50
77582;DHT22;66726;52.388;9.986;2023-09-07T08:11:44;20.80;99.10
77582;DHT22;66726;52.388;9.986;2023-09-07T08:14:17;20.80;98.90
77582;DHT22;66726;52.388;9.986;2023-09-07T08:16:52;21.00;98.90
77582;DHT22;66726;52.388;9.986;2023-09-07T08:19:27;21.00;98.80
77582;DHT22;66726;52.388;9.986;2023-09-07T08:22:01;21.10;98.50
77582;DHT22;66726;52.388;9.986;2023-09-07T08:24:36;21.30;98.60
77582;DHT22;66726;52.388;9.986;2023-09-07T08:27:10;21.50;98.40
77582;DHT22;66726;52.388;9.986;2023-09-07T08:29:48;21.60;98.00
77582;DHT22;66726;52.388;9.986;2023-09-07T08:32:22;21.70;97.80
77582;DHT22;66726;52.388;9.986;2023-09-07T08:34:55;21.80;97.60
77582;DHT22;66726;52.388;9.986;2023-09-07T08:37:31;21.80;97.90
77582;DHT22;66726;52.388;9.986;2023-09-07T08:40:05;22.00;98.10
77582;DHT22;66726;52.388;9.986;2023-09-07T08:42:41;22.00;97.50
77582;DHT22;66726;52.388;9.986;2023-09-07T08:45:16;22.10;96.90
77582;DHT22;66726;52.388;9.986;2023-09-07T08:47:55;22.10;97.20
77582;DHT22;66726;52.388;9.986;2023-09-07T08:50:30;22.30;97.40
77582;DHT22;66726;52.388;9.986;2023-09-07T08:53:05;22.30;97.20
77582;DHT22;66726;52.388;9.986;2023-09-07T08:55:38;22.50;96.70
77582;DHT22;66726;52.388;9.986;2023-09-07T08:58:11;22.70;99.90
77582;DHT22;66726;52.388;9.986;2023-09-07T09:00:45;22.60;96.60
77582;DHT22;66726;52.388;9.986;2023-09-07T09:03:21;22.70;96.50
77582;DHT22;66726;52.388;9.986;2023-09-07T09:05:55;22.90;96.10
77582;DHT22;66726;52.388;9.986;2023-09-07T09:08:29;23.00;95.90
77582;DHT22;66726;52.388;9.986;2023-09-07T09:11:12;23.10;95.20
77582;DHT22;66726;52.388;9.986;2023-09-07T09:13:47;23.20;94.70
77582;DHT22;66726;52.388;9.986;2023-09-07T09:16:22;23.30;94.40
77582;DHT22;66726;52.388;9.986;2023-09-07T09:18:57;23.40;94.40
77582;DHT22;66726;52.388;9.986;2023-09-07T09:21:30;23.50;94.30
77582;DHT22;66726;52.388;9.986;2023-09-07T09:24:08;23.60;94.30
77582;DHT22;66726;52.388;9.986;2023-09-07T09:26:42;23.60;94.10
77582;DHT22;66726;52.388;9.986;2023-09-07T09:29:16;23.80;94.00
77582;DHT22;66726;52.388;9.986;2023-09-07T09:31:53;23.90;92.90
77582;DHT22;66726;52.388;9.986;2023-09-07T09:34:26;24.10;92.70
77582;DHT22;66726;52.388;9.986;2023-09-07T09:37:12;24.20;91.50
77582;DHT22;66726;52.388;9.986;2023-09-07T09:39:50;24.40;91.70
77582;DHT22;66726;52.388;9.986;2023-09-07T09:42:25;24.50;91.40
77582;DHT22;66726;52.388;9.986;2023-09-07T09:45:00;24.70;91.00
77582;DHT22;66726;52.388;9.986;2023-09-07T09:47:37;24.70;90.70
77582;DHT22;66726;52.388;9.986;2023-09-07T09:50:14;24.80;91.40
77582;DHT22;66726;52.388;9.986;2023-09-07T09:52:48;24.80;90.20
77582;DHT22;66726;52.388;9.986;2023-09-07T09:55:23;25.10;90.50
77582;DHT22;66726;52.388;9.986;2023-09-07T09:57:58;25.10;95.10
77582;DHT22;66726;52.388;9.986;2023-09-07T10:00:32;25.30;90.20
77582;DHT22;66726;52.388;9.986;2023-09-07T10:03:12;25.40;89.60
77582;DHT22;66726;52.388;9.986;2023-09-07T10:05:50;25.60;89.00
77582;DHT22;66726;52.388;9.986;2023-09-07T10:08:23;25.60;89.70
77582;DHT22;66726;52.388;9.986;2023-09-07T10:11:06;25.80;86.80
77582;DHT22;66726;52.388;9.986;2023-09-07T10:13:40;25.90;87.00
77582;DHT22;66726;52.388;9.986;2023-09-07T10:16:14;26.00;85.90
77582;DHT22;66726;52.388;9.986;2023-09-07T10:18:48;26.10;85.70
77582;DHT22;66726;52.388;9.986;2023-09-07T10:21:23;26.20;86.70
77582;DHT22;66726;52.388;9.986;2023-09-07T10:23:57;26.40;84.80
77582;DHT22;66726;52.388;9.986;2023-09-07T10:26:30;26.30;84.00
77582;DHT22;66726;52.388;9.986;2023-09-07T10:29:04;26.40;87.80
77582;DHT22;66726;52.388;9.986;2023-09-07T10:31:38;26.60;84.60
77582;DHT22;66726;52.388;9.986;2023-09-07T10:34:24;26.60;83.90
77582;DHT22;66726;52.388;9.986;2023-09-07T10:37:09;26.70;82.10
77582;DHT22;66726;52.388;9.986;2023-09-07T10:39:44;26.80;85.80
77582;DHT22;66726;52.388;9.986;2023-09-07T10:42:25;26.90;82.50
77582;DHT22;66726;52.388;9.986;2023-09-07T10:45:10;26.80;83.70
77582;DHT22;66726;52.388;9.986;2023-09-07T10:47:46;27.10;82.60
77582;DHT22;66726;52.388;9.986;2023-09-07T10:50:20;27.10;85.30
77582;DHT22;66726;52.388;9.986;2023-09-07T10:52:53;27.20;80.80
77582;DHT22;66726;52.388;9.986;2023-09-07T10:55:27;27.20;81.20
77582;DHT22;66726;52.388;9.986;2023-09-07T10:58:08;27.30;81.00
77582;DHT22;66726;52.388;9.986;2023-09-07T11:00:41;27.40;80.90
77582;DHT22;66726;52.388;9.986;2023-09-07T11:03:14;27.60;78.30
77582;DHT22;66726;52.388;9.986;2023-09-07T11:05:48;27.80;77.40
77582;DHT22;66726;52.388;9.986;2023-09-07T11:08:25;27.80;78.40
77582;DHT22;66726;52.388;9.986;2023-09-07T11:11:00;27.80;76.10
77582;DHT22;66726;52.388;9.986;2023-09-07T11:13:35;27.90;78.00
77582;DHT22;66726;52.388;9.986;2023-09-07T11:16:10;28.10;76.30
77582;DHT22;66726;52.388;9.986;2023-09-07T11:18:44;28.10;74.80
77582;DHT22;66726;52.388;9.986;2023-09-07T11:21:19;28.10;76.00
77582;DHT22;66726;52.388;9.986;2023-09-07T11:23:52;28.20;76.10
77582;DHT22;66726;52.388;9.986;2023-09-07T11:26:27;28.40;76.00
77582;DHT22;66726;52.388;9.986;2023-09-07T11:29:13;28.40;74.70
77582;DHT22;66726;52.388;9.986;2023-09-07T11:31:47;28.50;75.80
77582;DHT22;66726;52.388;9.986;2023-09-07T11:34:21;28.60;74.20
77582;DHT22;66726;52.388;9.986;2023-09-07T11:36:54;28.70;74.10
77582;DHT22;66726;52.388;9.986;2023-09-07T11:39:28;28.80;73.20
77582;DHT22;66726;52.388;9.986;2023-09-07T11:42:01;28.80;73.70
77582;DHT22;66726;52.388;9.986;2023-09-07T11:44:34;28.90;73.10
77582;DHT22;66726;52.388;9.986;2023-09-07T11:47:08;29.10;73.70
77582;DHT22;66726;52.388;9.986;2023-09-07T11:49:41;29.20;70.30
77582;DHT22;66726;52.388;9.986;2023-09-07T11:52:14;29.30;72.20
77582;DHT22;66726;52.388;9.986;2023-09-07T11:54:49;29.30;69.90
77582;DHT22;66726;52.388;9.986;2023-09-07T11:57:22;29.40;72.00
77582;DHT22;66726;52.388;9.986;2023-09-07T11:59:56;29.50;71.40
77582;DHT22;66726;52.388;9.986;2023-09-07T12:02:29;29.60;68.70
77582;DHT22;66726;52.388;9.986;2023-09-07T12:05:03;29.70;73.90
77582;DHT22;66726;52.388;9.986;2023-09-07T12:07:38;29.90;69.60
77582;DHT22;66726;52.388;9.986;2023-09-07T12:10:15;29.80;67.30
77582;DHT22;66726;52.388;9.986;2023-09-07T12:12:48;29.80;68.00
77582;DHT22;66726;52.388;9.986;2023-09-07T12:15:21;30.00;68.70
77582;DHT22;66726;52.388;9.986;2023-09-07T12:17:54;30.10;68.40
77582;DHT22;66726;52.388;9.986;2023-09-07T12:20:28;30.30;66.40
77582;DHT22;66726;52.388;9.986;2023-09-07T12:23:02;30.30;67.00
77582;DHT22;66726;52.388;9.986;2023-09-07T12:25:35;30.40;66.30
77582;DHT22;66726;52.388;9.986;2023-09-07T12:28:08;30.50;65.70
77582;DHT22;66726;52.388;9.986;2023-09-07T12:30:41;30.60;62.80
77582;DHT22;66726;52.388;9.986;2023-09-07T12:33:15;30.50;66.30
77582;DHT22;66726;52.388;9.986;2023-09-07T12:35:48;30.70;64.40
77582;DHT22;66726;52.388;9.986;2023-09-07T12:38:21;30.80;66.30
77582;DHT22;66726;52.388;9.986;2023-09-07T12:40:58;30.90;63.80
77582;DHT22;66726;52.388;9.986;2023-09-07T12:43:32;31.00;63.10
77582;DHT22;66726;52.388;9.986;2023-09-07T12:46:05;30.90;62.20
77582;DHT22;66726;52.388;9.986;2023-09-07T12:48:39;31.00;66.00
77582;DHT22;66726;52.388;9.986;2023-09-07T12:51:13;31.10;73.00
77582;DHT22;66726;52.388;9.986;2023-09-07T12:53:47;31.30;65.40
77582;DHT22;66726;52.388;9.986;2023-09-07T12:56:21;31.20;61.00
77582;DHT22;66726;52.388;9.986;2023-09-07T12:58:54;31.30;61.50
77582;DHT22;66726;52.388;9.986;2023-09-07T13:01:29;31.30;60.40
77582;DHT22;66726;52.388;9.986;2023-09-07T13:04:03;31.40;59.90
77582;DHT22;66726;52.388;9.986;2023-09-07T13:06:36;31.50;60.00
77582;DHT22;66726;52.388;9.986;2023-09-07T13:09:10;31.50;58.10
77582;DHT22;66726;52.388;9.986;2023-09-07T13:11:43;31.50;57.10
77582;DHT22;66726;52.388;9.986;2023-09-07T13:14:16;31.50;57.40
77582;DHT22;66726;52.388;9.986;2023-09-07T13:16:50;31.40;56.10
77582;DHT22;66726;52.388;9.986;2023-09-07T13:19:25;31.60;56.40
77582;DHT22;66726;52.388;9.986;2023-09-07T13:21:59;31.70;55.60
77582;DHT22;66726;52.388;9.986;2023-09-07T13:24:32;31.70;56.80
77582;DHT22;66726;52.388;9.986;2023-09-07T13:27:07;31.70;59.40
77582;DHT22;66726;52.388;9.986;2023-09-07T13:29:40;31.80;57.60
77582;DHT22;66726;52.388;9.986;2023-09-07T13:32:13;31.90;55.10
77582;DHT22;66726;52.388;9.986;2023-09-07T13:34:47;32.00;55.70
77582;DHT22;66726;52.388;9.986;2023-09-07T13:37:20;32.00;54.60
77582;DHT22;66726;52.388;9.986;2023-09-07T13:39:54;32.20;54.20
77582;DHT22;66726;52.388;9.986;2023-09-07T13:42:28;31.90;53.80
77582;DHT22;66726;52.388;9.986;2023-09-07T13:45:01;31.90;54.90
77582;DHT22;66726;52.388;9.986;2023-09-07T13:47:35;32.10;53.50
77582;DHT22;66726;52.388;9.986;2023-09-07T13:50:10;32.10;53.40
77582;DHT22;66726;52.388;9.986;2023-09-07T13:52:43;32.30;54.40
77582;DHT22;66726;52.388;9.986;2023-09-07T13:55:17;32.40;53.90
77582;DHT22;66726;52.388;9.986;2023-09-07T13:57:50;32.20;51.60
77582;DHT22;66726;52.388;9.986;2023-09-07T14:00:23;32.20;52.40
77582;DHT22;66726;52.388;9.986;2023-09-07T14:02:56;32.40;54.00
77582;DHT22;66726;52.388;9.986;2023-09-07T14:05:30;32.60;57.90
77582;DHT22;66726;52.388;9.986;2023-09-07T14:08:04;32.90;78.00
77582;DHT22;66726;52.388;9.986;2023-09-07T14:10:38;32.80;73.60
77582;DHT22;66726;52.388;9.986;2023-09-07T14:13:11;32.60;72.90
77582;DHT22;66726;52.388;9.986;2023-09-07T14:15:44;32.40;63.00
77582;DHT22;66726;52.388;9.986;2023-09-07T14:18:18;32.60;60.60
77582;DHT22;66726;52.388;9.986;2023-09-07T14:20:51;32.70;60.60
77582;DHT22;66726;52.388;9.986;2023-09-07T14:23:27;32.70;62.70
77582;DHT22;66726;52.388;9.986;2023-09-07T14:26:01;32.90;61.80
77582;DHT22;66726;52.388;9.986;2023-09-07T14:28:35;32.80;61.60
77582;DHT22;66726;52.388;9.986;2023-09-07T14:31:09;33.00;60.70
77582;DHT22;66726;52.388;9.986;2023-09-07T14:33:43;33.00;60.50
77582;DHT22;66726;52.388;9.986;2023-09-07T14:36:17;32.80;62.50
77582;DHT22;66726;52.388;9.986;2023-09-07T14:38:50;32.90;59.90
77582;DHT22;66726;52.388;9.986;2023-09-07T14:41:24;32.60;60.50
77582;DHT22;66726;52.388;9.986;2023-09-07T14:43:58;32.70;61.40
77582;DHT22;66726;52.388;9.986;2023-09-07T14:46:31;32.90;62.40
77582;DHT22;66726;52.388;9.986;2023-09-07T14:49:05;32.70;59.90
77582;DHT22;66726;52.388;9.986;2023-09-07T14:51:39;32.80;60.80
77582;DHT22;66726;52.388;9.986;2023-09-07T14:54:12;32.80;63.00
77582;DHT22;66726;52.388;9.986;2023-09-07T14:56:46;32.80;60.00
77582;DHT22;66726;52.388;9.986;2023-09-07T14:59:19;32.80;61.40
77582;DHT22;66726;52.388;9.986;2023-09-07T15:01:52;33.00;59.50
77582;DHT22;66726;52.388;9.986;2023-09-07T15:04:33;32.80;58.90
77582;DHT22;66726;52.388;9.986;2023-09-07T15:07:08;32.90;60.80
77582;DHT22;66726;52.388;9.986;2023-09-07T15:09:42;33.00;60.20
77582;DHT22;66726;52.388;9.986;2023-09-07T15:12:15;33.00;61.10
77582;DHT22;66726;52.388;9.986;2023-09-07T15:14:49;33.00;60.30
77582;DHT22;66726;52.388;9.986;2023-09-07T15:17:22;32.90;60.80
77582;DHT22;66726;52.388;9.986;2023-09-07T15:19:56;33.00;60.20
77582;DHT22;66726;52.388;9.986;2023-09-07T15:22:30;32.90;60.70
77582;DHT22;66726;52.388;9.986;2023-09-07T15:25:05;32.90;60.50
77582;DHT22;66726;52.388;9.986;2023-09-07T15:27:39;32.60;57.40
77582;DHT22;66726;52.388;9.986;2023-09-07T15:30:16;32.70;56.90
77582;DHT22;66726;52.388;9.986;2023-09-07T15:32:49;32.60;55.30
77582;DHT22;66726;52.388;9.986;2023-09-07T15:35:23;32.60;55.10
77582;DHT22;66726;52.388;9.986;2023-09-07T15:37:56;32.60;55.90
77582;DHT22;66726;52.388;9.986;2023-09-07T15:40:31;32.50;56.10
77582;DHT22;66726;52.388;9.986;2023-09-07T15:43:05;32.40;52.40
77582;DHT22;66726;52.388;9.986;2023-09-07T15:45:39;32.40;51.90
77582;DHT22;66726;52.388;9.986;2023-09-07T15:48:13;32.50;53.00
77582;DHT22;66726;52.388;9.986;2023-09-07T15:50:47;32.50;52.10
77582;DHT22;66726;52.388;9.986;2023-09-07T15:53:20;32.40;52.20
77582;DHT22;66726;52.388;9.986;2023-09-07T15:55:54;32.40;52.60
77582;DHT22;66726;52.388;9.986;2023-09-07T15:58:27;32.20;51.20
77582;DHT22;66726;52.388;9.986;2023-09-07T16:01:02;31.90;52.10
77582;DHT22;66726;52.388;9.986;2023-09-07T16:03:35;32.10;51.60
77582;DHT22;66726;52.388;9.986;2023-09-07T16:06:09;32.10;52.80
77582;DHT22;66726;52.388;9.986;2023-09-07T16:08:44;32.20;53.80
77582;DHT22;66726;52.388;9.986;2023-09-07T16:11:17;32.30;54.00
77582;DHT22;66726;52.388;9.986;2023-09-07T16:13:51;32.10;53.50